createdAt,value
2022-10-16T07:13:03.107Z,32.08
2022-10-16T07:15:41.024Z,31.92
2022-10-16T07:18:17.752Z,34.85
2022-10-16T07:20:54.771Z,31.13
2022-10-16T07:23:31.876Z,32.92
2022-10-16T07:26:10.213Z,33.20
2022-10-16T07:28:50.024Z,31.38
2022-10-16T07:31:28.292Z,31.50
2022-10-16T07:34:05.551Z,35.22
2022-10-16T07:36:43.911Z,34.30
2022-10-16T07:39:22.087Z,31.95
2022-10-16T07:42:00.317Z,35.58
2022-10-16T07:44:40.438Z,36.10
2022-10-16T07:47:18.105Z,38.22
2022-10-16T07:49:55.195Z,34.53
2022-10-16T07:52:32.892Z,35.95
2022-10-16T07:55:11.384Z,37.80
2022-10-16T07:57:48.552Z,37.10
2022-10-16T08:00:28.104Z,34.15
2022-10-16T08:03:05.599Z,35.13
2022-10-16T08:05:42.570Z,33.72
2022-10-16T08:08:22.201Z,35.95
2022-10-16T08:10:59.721Z,35.53
2022-10-16T08:13:37.302Z,35.15
2022-10-16T08:16:17.772Z,33.78
2022-10-16T08:18:55.461Z,33.67
2022-10-16T08:21:32.403Z,34.30
2022-10-16T08:24:10.119Z,33.92
2022-10-16T08:26:47.202Z,35.53
2022-10-16T08:29:24.260Z,30.85
2022-10-16T08:32:03.750Z,31.17
2022-10-16T08:34:41.573Z,37.20
2022-10-16T08:37:18.964Z,37.30
2022-10-16T08:39:58.175Z,31.98
2022-10-16T08:42:56.555Z,35.08
2022-10-16T08:45:48.697Z,32.92
2022-10-16T08:48:34.529Z,34.42
2022-10-16T08:51:15.847Z,32.63
2022-10-16T08:53:58.508Z,32.13
2022-10-16T08:56:36.330Z,31.67
2022-10-16T08:59:18.476Z,29.67
2022-10-16T09:01:57.009Z,32.67
2022-10-16T09:05:05.968Z,30.33
2022-10-16T09:07:51.613Z,39.30
2022-10-16T09:10:43.757Z,30.38
2022-10-16T09:13:30.389Z,29.80
2022-10-16T09:16:23.100Z,27.42
2022-10-16T09:19:13.538Z,29.77
2022-10-16T09:21:54.907Z,27.70
2022-10-16T09:24:34.688Z,29.00
2022-10-16T09:27:15.308Z,31.05
2022-10-16T09:29:54.968Z,29.48
2022-10-16T09:32:36.135Z,29.38
2022-10-16T09:35:22.462Z,29.10
2022-10-16T09:38:01.848Z,29.80
2022-10-16T09:40:41.742Z,29.25
2022-10-16T09:43:29.867Z,30.50
2022-10-16T09:46:09.784Z,27.45
2022-10-16T09:48:52.478Z,27.13
2022-10-16T09:51:32.619Z,25.25
2022-10-16T09:54:26.058Z,26.45
2022-10-16T09:57:11.338Z,30.50
2022-10-16T09:59:53.068Z,24.35
2022-10-16T10:02:39.379Z,32.15
2022-10-16T10:05:25.298Z,29.77
2022-10-16T10:08:07.413Z,28.75
2022-10-16T10:10:47.939Z,30.50
2022-10-16T10:13:28.367Z,29.58
2022-10-16T10:16:07.669Z,28.77
2022-10-16T10:18:47.245Z,29.48
2022-10-16T10:21:23.818Z,29.30
2022-10-16T10:24:01.939Z,30.98
2022-10-16T10:26:45.313Z,29.27
2022-10-16T10:29:40.602Z,31.95
2022-10-16T10:32:31.774Z,30.40
2022-10-16T10:35:23.116Z,31.98
2022-10-16T10:38:25.089Z,32.05
2022-10-16T10:41:19.168Z,31.92
2022-10-16T10:44:12.324Z,28.23
2022-10-16T10:46:59.431Z,30.60
2022-10-16T10:49:52.914Z,29.23
2022-10-16T10:52:53.503Z,26.92
2022-10-16T10:55:43.714Z,28.90
2022-10-16T10:59:06.653Z,28.40
2022-10-16T11:01:54.053Z,29.42
2022-10-16T11:05:06.555Z,31.13
2022-10-16T11:07:49.455Z,29.27
2022-10-16T11:10:31.733Z,26.52
2022-10-16T11:13:28.993Z,26.42
2022-10-16T11:16:21.551Z,29.17
2022-10-16T11:19:07.703Z,25.73
2022-10-16T11:21:53.625Z,25.98
2022-10-16T11:24:45.659Z,28.77
2022-10-16T11:27:28.744Z,23.98
2022-10-16T11:30:16.284Z,26.67
2022-10-16T11:33:18.444Z,26.38
2022-10-16T11:36:04.544Z,22.92
2022-10-16T11:38:55.243Z,19.88
2022-10-16T11:41:39.174Z,21.98
2022-10-16T11:44:38.722Z,20.63
2022-10-16T11:47:58.737Z,19.42
2022-10-16T11:50:37.470Z,21.05
2022-10-16T11:53:26.466Z,18.77
2022-10-16T11:56:03.785Z,18.40
2022-10-16T11:58:46.495Z,18.65
2022-10-16T12:01:33.158Z,18.90
2022-10-16T12:04:28.824Z,18.50
2022-10-16T12:07:15.245Z,16.77
2022-10-16T12:09:52.530Z,17.70
2022-10-16T12:12:33.042Z,14.63
2022-10-16T12:15:54.592Z,16.63
2022-10-16T12:18:27.240Z,15.65
2022-10-16T12:21:06.970Z,15.18
2022-10-16T12:23:56.843Z,16.15
2022-10-16T12:26:37.390Z,16.60
2022-10-16T12:29:26.699Z,14.32
2022-10-16T12:32:03.611Z,17.33
2022-10-16T12:34:46.644Z,14.95
2022-10-16T12:37:28.804Z,12.50
2022-10-16T12:40:19.643Z,10.13
2022-10-16T12:42:56.579Z,14.25
2022-10-16T12:45:36.627Z,12.07
2022-10-16T12:48:32.556Z,8.18
2022-10-16T12:51:29.293Z,8.23
2022-10-16T12:54:08.154Z,9.35
2022-10-16T12:57:03.254Z,9.70
2022-10-16T12:59:52.721Z,8.88
2022-10-16T13:03:12.619Z,7.57
2022-10-16T13:06:07.196Z,8.45
2022-10-16T13:09:14.194Z,9.18
2022-10-16T13:12:14.153Z,13.18
2022-10-16T13:15:16.250Z,8.23
2022-10-16T13:18:05.343Z,9.20
2022-10-16T13:21:09.601Z,6.50
2022-10-16T13:23:57.581Z,8.50
2022-10-16T13:26:48.985Z,8.55
2022-10-16T13:29:33.803Z,7.60
2022-10-16T13:32:15.343Z,7.03
2022-10-16T13:34:54.873Z,6.65
2022-10-16T13:37:32.049Z,6.07
2022-10-16T13:40:23.952Z,7.15
2022-10-16T13:43:04.144Z,5.60
2022-10-16T13:45:43.728Z,7.43
2022-10-16T13:48:21.283Z,6.75
2022-10-16T13:51:16.467Z,6.45
2022-10-16T13:53:54.577Z,6.20
2022-10-16T13:56:35.823Z,7.00
2022-10-16T13:59:29.994Z,8.07
2022-10-16T14:02:24.606Z,7.00
2022-10-16T14:05:03.223Z,7.03
2022-10-16T14:07:41.810Z,7.40
2022-10-16T14:10:29.984Z,7.82
2022-10-16T14:13:11.101Z,7.70
2022-10-16T14:15:56.073Z,9.13
2022-10-16T14:18:36.055Z,7.68
2022-10-16T14:21:21.182Z,8.00
2022-10-16T14:23:58.485Z,6.95
2022-10-16T14:26:51.009Z,7.55
2022-10-16T14:29:30.257Z,9.90
2022-10-16T14:32:27.803Z,8.00
2022-10-16T14:35:26.813Z,8.43
2022-10-16T14:38:05.994Z,9.73
2022-10-16T14:40:51.220Z,10.55
2022-10-16T14:43:37.000Z,7.22
2022-10-16T14:46:17.999Z,9.43
2022-10-16T14:49:00.092Z,8.88
2022-10-16T14:51:42.331Z,7.28
2022-10-16T14:54:22.214Z,10.98
2022-10-16T14:57:03.052Z,12.75
2022-10-16T14:59:45.509Z,8.77
2022-10-16T15:02:31.860Z,9.83
2022-10-16T15:05:19.522Z,7.85
2022-10-16T15:07:59.931Z,6.72
2022-10-16T15:10:43.113Z,8.10
2022-10-16T15:13:19.868Z,9.52
2022-10-16T15:15:59.467Z,11.00
2022-10-16T15:18:36.225Z,9.32
2022-10-16T15:21:19.003Z,10.23
2022-10-16T15:23:58.344Z,13.43
2022-10-16T15:26:35.943Z,8.77
2022-10-16T15:29:13.095Z,10.88
2022-10-16T15:31:51.986Z,8.82
2022-10-16T15:34:28.693Z,9.35
2022-10-16T15:37:07.960Z,10.40
2022-10-16T15:39:47.587Z,10.18
2022-10-16T15:42:25.412Z,12.73
2022-10-16T15:45:02.191Z,13.07
2022-10-16T15:47:42.322Z,10.52
2022-10-16T15:50:25.943Z,10.65
2022-10-16T15:53:06.415Z,13.25
2022-10-16T15:55:45.869Z,16.48
2022-10-16T15:58:23.193Z,15.07
2022-10-16T16:01:02.450Z,15.35
2022-10-16T16:03:43.141Z,12.38
2022-10-16T16:06:20.357Z,12.05
2022-10-16T16:08:58.021Z,14.95
2022-10-16T16:11:39.940Z,11.98
2022-10-16T16:14:18.344Z,13.63
2022-10-16T16:16:55.202Z,15.05
2022-10-16T16:19:33.196Z,17.35
2022-10-16T16:22:12.383Z,19.05
2022-10-16T16:24:50.557Z,17.15
2022-10-16T16:27:31.213Z,16.77
2022-10-16T16:30:14.058Z,18.30
2022-10-16T16:32:52.268Z,19.58
2022-10-16T16:35:29.570Z,18.67
2022-10-16T16:38:06.358Z,20.98
2022-10-16T16:40:43.487Z,18.88
2022-10-16T16:43:22.937Z,19.35
2022-10-16T16:46:01.066Z,22.95
2022-10-16T16:48:38.838Z,19.35
2022-10-16T16:51:22.231Z,21.63
2022-10-16T16:53:59.894Z,22.15
2022-10-16T16:56:37.238Z,19.55
2022-10-16T16:59:20.981Z,24.55
2022-10-16T17:01:58.853Z,20.35
2022-10-16T17:04:36.151Z,18.50
2022-10-16T17:07:13.964Z,20.75
2022-10-16T17:09:51.531Z,23.10
2022-10-16T17:12:29.138Z,25.08
2022-10-16T17:15:11.271Z,22.52
2022-10-16T17:20:27.768Z,24.33
2022-10-16T17:23:05.300Z,28.40
2022-10-16T17:25:46.275Z,28.10
2022-10-16T17:28:24.328Z,20.23
2022-10-16T17:31:18.143Z,28.48
2022-10-16T17:33:56.501Z,27.65
2022-10-16T17:36:36.240Z,26.02
2022-10-16T17:39:18.650Z,32.80
2022-10-16T17:41:56.585Z,26.40
2022-10-16T17:44:35.420Z,25.30
2022-10-16T17:47:16.865Z,23.73
2022-10-16T17:49:55.118Z,25.88
2022-10-16T17:52:33.051Z,26.40
2022-10-16T17:55:13.219Z,24.88
2022-10-16T17:57:51.142Z,25.10
2022-10-16T18:00:30.683Z,27.17
2022-10-16T18:03:15.700Z,26.20
2022-10-16T18:05:53.569Z,22.05
2022-10-16T18:08:37.370Z,25.58
2022-10-16T18:11:21.530Z,24.85
2022-10-16T18:14:03.502Z,23.63
2022-10-16T18:16:43.169Z,25.27
2022-10-16T18:19:25.035Z,24.17
2022-10-16T18:22:04.802Z,25.02
2022-10-16T18:24:43.049Z,21.00
2022-10-16T18:27:21.884Z,25.13
2022-10-16T18:30:01.494Z,21.85
2022-10-16T18:32:39.451Z,21.15
2022-10-16T18:35:19.972Z,19.88
2022-10-16T18:38:01.862Z,24.25
2022-10-16T18:40:42.381Z,19.90
2022-10-16T18:43:21.959Z,20.63
2022-10-16T18:46:05.062Z,21.95
2022-10-16T18:48:44.588Z,20.02
2022-10-16T18:51:28.310Z,23.55
2022-10-16T18:54:08.742Z,25.88
2022-10-16T18:56:52.562Z,24.33
2022-10-16T18:59:32.820Z,22.92
2022-10-16T19:02:16.759Z,23.98
2022-10-16T19:04:54.912Z,20.98
2022-10-16T19:07:38.209Z,22.45
2022-10-16T19:10:16.630Z,23.15
2022-10-16T19:12:57.705Z,26.35
2022-10-16T19:15:36.369Z,20.35
2022-10-16T19:18:14.079Z,24.17
2022-10-16T19:20:52.760Z,18.33
2022-10-16T19:23:33.048Z,19.25
2022-10-16T19:26:14.704Z,20.13
2022-10-16T19:28:53.630Z,20.73
2022-10-16T19:31:34.754Z,21.13
2022-10-16T19:34:14.252Z,20.92
2022-10-16T19:36:52.504Z,17.50
